createdAt,value
2022-12-31T00:01:17.974Z,9.97
2022-12-31T00:03:44.246Z,9.94
2022-12-31T00:06:10.510Z,9.90
2022-12-31T00:08:36.766Z,9.91
2022-12-31T00:11:03.007Z,9.90
2022-12-31T00:13:29.251Z,9.95
2022-12-31T00:15:55.527Z,9.92
2022-12-31T00:18:21.828Z,9.91
2022-12-31T00:20:48.117Z,9.92
2022-12-31T00:23:14.377Z,10.00
2022-12-31T00:25:40.644Z,9.96
2022-12-31T00:28:06.953Z,9.92
2022-12-31T00:30:33.267Z,9.90
2022-12-31T00:32:59.538Z,9.88
2022-12-31T00:35:25.812Z,9.85
2022-12-31T00:37:52.057Z,9.84
2022-12-31T00:40:18.366Z,9.87
2022-12-31T00:42:44.627Z,9.89
2022-12-31T00:45:10.891Z,9.88
2022-12-31T00:47:37.167Z,9.84
2022-12-31T00:50:03.529Z,9.80
2022-12-31T00:52:29.831Z,9.77
2022-12-31T00:54:56.086Z,9.70
2022-12-31T00:57:22.345Z,9.68
2022-12-31T00:59:48.615Z,9.67
2022-12-31T01:02:15.043Z,9.65
2022-12-31T01:04:41.448Z,9.67
2022-12-31T01:07:07.764Z,9.64
2022-12-31T01:09:34.032Z,9.66
2022-12-31T01:12:00.311Z,9.69
2022-12-31T01:14:26.661Z,9.69
2022-12-31T01:16:52.951Z,9.68
2022-12-31T01:19:20.247Z,9.69
2022-12-31T01:21:46.516Z,9.68
2022-12-31T01:24:12.787Z,9.68
2022-12-31T01:26:39.060Z,9.67
2022-12-31T01:29:05.337Z,9.70
2022-12-31T01:31:31.670Z,9.70
2022-12-31T01:33:57.958Z,9.70
2022-12-31T01:36:26.102Z,9.79
2022-12-31T01:38:52.652Z,9.80
2022-12-31T01:41:18.925Z,9.80
2022-12-31T01:43:45.203Z,9.80
2022-12-31T01:46:11.530Z,9.80
2022-12-31T01:48:37.830Z,9.78
2022-12-31T01:51:04.089Z,9.76
2022-12-31T01:53:30.336Z,9.77
2022-12-31T01:55:56.603Z,9.77
2022-12-31T01:58:22.917Z,9.77
2022-12-31T02:00:49.182Z,9.82
2022-12-31T02:03:15.496Z,9.81
2022-12-31T02:05:41.804Z,9.77
2022-12-31T02:08:08.094Z,9.80
2022-12-31T02:10:34.382Z,9.82
2022-12-31T02:13:00.669Z,9.77
2022-12-31T02:15:26.925Z,9.82
2022-12-31T02:17:53.185Z,9.83
2022-12-31T02:20:19.477Z,9.82
2022-12-31T02:22:45.775Z,9.86
2022-12-31T02:25:12.351Z,9.84
2022-12-31T02:27:38.609Z,9.85
2022-12-31T02:30:04.855Z,9.87
2022-12-31T02:32:31.146Z,9.86
2022-12-31T02:34:57.396Z,9.86
2022-12-31T02:37:23.665Z,9.81
2022-12-31T02:39:49.942Z,9.82
2022-12-31T02:42:16.211Z,9.82
2022-12-31T02:44:42.479Z,9.82
2022-12-31T02:47:08.750Z,9.84
2022-12-31T02:49:35.045Z,9.81
2022-12-31T02:52:01.340Z,9.82
2022-12-31T02:54:27.685Z,9.80
2022-12-31T02:56:54.027Z,9.80
2022-12-31T02:59:20.265Z,9.79
2022-12-31T03:01:46.630Z,9.80
2022-12-31T03:04:12.978Z,9.80
2022-12-31T03:06:39.232Z,9.82
2022-12-31T03:09:05.506Z,9.83
2022-12-31T03:11:31.772Z,9.81
2022-12-31T03:13:58.044Z,9.80
2022-12-31T03:16:24.332Z,9.83
2022-12-31T03:18:50.599Z,9.83
2022-12-31T03:21:16.866Z,9.85
2022-12-31T03:23:43.173Z,9.81
2022-12-31T03:26:09.444Z,9.77
2022-12-31T03:28:35.707Z,9.77
2022-12-31T03:31:02.032Z,9.77
2022-12-31T03:33:28.369Z,9.75
2022-12-31T03:35:54.626Z,9.77
2022-12-31T03:38:20.895Z,9.73
2022-12-31T03:40:47.141Z,9.81
2022-12-31T03:43:13.389Z,9.79
2022-12-31T03:45:39.714Z,9.78
2022-12-31T03:48:05.996Z,9.76
2022-12-31T03:50:32.256Z,9.78
2022-12-31T03:52:58.560Z,9.75
2022-12-31T03:55:24.822Z,9.71
2022-12-31T03:57:51.092Z,9.74
2022-12-31T04:00:17.479Z,9.78
2022-12-31T04:02:43.741Z,9.77
2022-12-31T04:05:10.151Z,9.77
2022-12-31T04:07:36.444Z,9.77
2022-12-31T04:10:02.695Z,9.79
2022-12-31T04:12:28.932Z,9.79
2022-12-31T04:14:55.210Z,9.83
2022-12-31T04:17:21.483Z,9.83
2022-12-31T04:19:47.755Z,9.85
2022-12-31T04:22:14.018Z,9.91
2022-12-31T04:24:40.292Z,9.88
2022-12-31T04:27:07.985Z,9.87
2022-12-31T04:29:34.503Z,9.85
2022-12-31T04:32:00.832Z,9.82
2022-12-31T04:34:27.158Z,9.81
2022-12-31T04:36:53.433Z,9.81
2022-12-31T04:39:19.687Z,9.82
2022-12-31T04:41:45.966Z,9.83
2022-12-31T04:44:12.241Z,9.84
2022-12-31T04:46:38.516Z,9.81
2022-12-31T04:49:04.774Z,9.87
2022-12-31T04:51:31.039Z,9.86
2022-12-31T04:53:57.303Z,9.88
2022-12-31T04:56:23.578Z,9.91
2022-12-31T04:58:49.852Z,9.88
2022-12-31T05:01:16.347Z,9.80
2022-12-31T05:03:42.748Z,9.82
2022-12-31T05:06:09.008Z,9.79
2022-12-31T05:08:35.281Z,9.79
2022-12-31T05:11:01.554Z,9.78
2022-12-31T05:13:32.872Z,9.78
2022-12-31T05:15:59.695Z,9.81
2022-12-31T05:18:25.959Z,9.81
2022-12-31T05:20:52.213Z,9.80
2022-12-31T05:23:18.485Z,9.79
2022-12-31T05:25:44.762Z,9.82
2022-12-31T05:28:11.040Z,9.86
2022-12-31T05:30:37.382Z,9.75
2022-12-31T05:33:03.743Z,9.74
2022-12-31T05:35:30.031Z,9.75
2022-12-31T05:37:57.342Z,9.78
2022-12-31T05:40:23.592Z,9.80
2022-12-31T05:42:49.883Z,9.81
2022-12-31T05:45:16.131Z,9.83
2022-12-31T05:47:42.460Z,9.79
2022-12-31T05:50:08.732Z,9.81
2022-12-31T05:52:34.987Z,9.79
2022-12-31T05:55:01.254Z,9.80
2022-12-31T05:57:27.545Z,9.75
2022-12-31T05:59:53.828Z,9.76
2022-12-31T06:02:20.137Z,9.71
2022-12-31T06:04:46.452Z,9.71
2022-12-31T06:07:12.720Z,9.65
2022-12-31T06:09:38.977Z,9.65
2022-12-31T06:12:05.220Z,9.67
2022-12-31T06:14:31.517Z,9.65
2022-12-31T06:16:57.839Z,9.64
2022-12-31T06:19:24.134Z,9.64
2022-12-31T06:21:50.405Z,9.63
2022-12-31T06:24:16.661Z,9.64
2022-12-31T06:26:42.924Z,9.57
2022-12-31T06:29:09.176Z,9.55
2022-12-31T06:31:35.486Z,9.58
2022-12-31T06:34:01.780Z,9.60
2022-12-31T06:36:28.076Z,9.55
2022-12-31T06:38:54.337Z,9.54
2022-12-31T06:41:20.619Z,9.57
2022-12-31T06:43:46.899Z,9.55
2022-12-31T06:46:13.394Z,9.58
2022-12-31T06:48:39.694Z,9.58
2022-12-31T06:51:05.952Z,9.57
2022-12-31T06:53:32.216Z,9.54
2022-12-31T06:55:58.472Z,9.54
2022-12-31T06:58:24.737Z,9.49
2022-12-31T07:00:51.027Z,9.49
2022-12-31T07:03:18.293Z,9.49
2022-12-31T07:05:44.560Z,9.49
2022-12-31T07:08:10.818Z,9.51
2022-12-31T07:10:37.076Z,9.52
2022-12-31T07:13:03.451Z,9.57
2022-12-31T07:15:29.730Z,9.60
2022-12-31T07:17:56.008Z,9.58
2022-12-31T07:20:22.272Z,9.55
2022-12-31T07:22:48.533Z,9.53
2022-12-31T07:25:14.797Z,9.54
2022-12-31T07:27:41.056Z,9.54
2022-12-31T07:30:07.351Z,9.54
2022-12-31T07:32:33.603Z,9.59
2022-12-31T07:34:59.869Z,9.64
2022-12-31T07:37:26.133Z,9.61
2022-12-31T07:39:52.408Z,9.61
2022-12-31T07:42:18.715Z,9.62
2022-12-31T07:44:44.987Z,9.61
2022-12-31T07:47:11.249Z,9.61
2022-12-31T07:49:37.493Z,9.63
2022-12-31T07:52:03.769Z,9.65
2022-12-31T07:54:30.022Z,9.66
2022-12-31T07:56:56.304Z,9.67
2022-12-31T07:59:24.433Z,9.69
2022-12-31T08:01:51.176Z,9.74
2022-12-31T08:04:17.567Z,9.80
2022-12-31T08:06:43.841Z,9.80
2022-12-31T08:09:10.115Z,9.82
2022-12-31T08:11:36.379Z,9.96
2022-12-31T08:14:02.634Z,9.94
2022-12-31T08:16:28.951Z,10.00
2022-12-31T08:18:55.205Z,10.04
2022-12-31T08:21:21.477Z,10.02
2022-12-31T08:23:47.743Z,10.02
2022-12-31T08:26:14.017Z,10.02
2022-12-31T08:28:40.301Z,10.00
2022-12-31T08:31:06.578Z,10.03
2022-12-31T08:33:32.847Z,10.08
2022-12-31T08:35:59.138Z,10.11
2022-12-31T08:38:25.408Z,10.13
2022-12-31T08:40:51.674Z,10.20
2022-12-31T08:43:17.952Z,10.28
2022-12-31T08:45:44.219Z,10.30
2022-12-31T08:48:10.523Z,10.34
2022-12-31T08:50:36.792Z,10.32
2022-12-31T08:53:03.024Z,10.37
2022-12-31T08:55:29.276Z,10.28
2022-12-31T08:57:55.526Z,10.33
2022-12-31T09:00:21.776Z,10.28
2022-12-31T09:02:48.452Z,10.35
2022-12-31T09:05:14.821Z,10.47
2022-12-31T09:07:41.095Z,10.51
2022-12-31T09:10:07.375Z,10.49
2022-12-31T09:12:33.655Z,10.57
2022-12-31T09:14:59.916Z,10.62
2022-12-31T09:17:26.193Z,10.62
2022-12-31T09:19:52.455Z,10.64
2022-12-31T09:22:18.757Z,10.64
2022-12-31T09:24:45.048Z,10.65
2022-12-31T09:27:11.333Z,10.73
2022-12-31T09:29:37.636Z,10.73
2022-12-31T09:32:03.924Z,10.75
2022-12-31T09:34:30.197Z,10.71
2022-12-31T09:36:56.462Z,10.76
2022-12-31T09:39:22.720Z,10.76
2022-12-31T09:41:48.996Z,10.79
2022-12-31T09:44:15.258Z,10.82
2022-12-31T09:46:41.529Z,10.86
2022-12-31T09:49:07.830Z,10.80
2022-12-31T09:51:34.091Z,10.87
2022-12-31T09:54:00.355Z,10.99
2022-12-31T09:56:26.597Z,10.99
2022-12-31T09:58:52.864Z,10.97
2022-12-31T10:01:19.205Z,10.98
2022-12-31T10:03:45.577Z,11.01
2022-12-31T10:06:11.853Z,11.06
2022-12-31T10:08:38.109Z,11.10
2022-12-31T10:11:04.377Z,11.11
2022-12-31T10:13:30.633Z,11.12
2022-12-31T10:15:56.929Z,11.27
2022-12-31T10:18:23.191Z,11.34
2022-12-31T10:20:49.448Z,11.34
2022-12-31T10:23:15.715Z,11.36
2022-12-31T10:25:41.976Z,11.34
2022-12-31T10:28:08.235Z,11.34
2022-12-31T10:30:34.512Z,11.32
2022-12-31T10:33:00.809Z,11.30
2022-12-31T10:35:27.082Z,11.33
2022-12-31T10:37:53.391Z,11.32
2022-12-31T10:40:19.657Z,11.35
2022-12-31T10:42:45.950Z,11.37
2022-12-31T10:45:12.188Z,11.43
2022-12-31T10:47:38.470Z,11.46
2022-12-31T10:50:04.716Z,11.54
2022-12-31T10:52:30.991Z,11.58
2022-12-31T10:54:57.276Z,11.60
2022-12-31T10:57:23.547Z,11.62
2022-12-31T10:59:49.798Z,11.62
2022-12-31T11:02:16.258Z,11.58
2022-12-31T11:04:42.694Z,11.63
2022-12-31T11:07:08.966Z,11.69
2022-12-31T11:09:35.224Z,11.63
2022-12-31T11:12:01.487Z,11.68
2022-12-31T11:14:27.773Z,11.80
2022-12-31T11:16:54.025Z,11.90
2022-12-31T11:19:20.260Z,11.88
2022-12-31T11:21:46.545Z,11.87
2022-12-31T11:24:12.831Z,11.84
2022-12-31T11:26:39.100Z,11.88
2022-12-31T11:29:05.345Z,11.90
2022-12-31T11:31:31.662Z,11.89
2022-12-31T11:33:57.965Z,11.87
2022-12-31T11:36:24.240Z,11.96
2022-12-31T11:38:50.497Z,11.88
2022-12-31T11:41:16.744Z,11.94
2022-12-31T11:43:42.988Z,11.93
2022-12-31T11:46:09.314Z,11.90
2022-12-31T11:48:35.621Z,11.96
2022-12-31T11:51:01.892Z,11.99
2022-12-31T11:53:28.158Z,12.00
2022-12-31T11:55:54.421Z,11.94
2022-12-31T11:58:20.680Z,12.11
2022-12-31T12:00:46.941Z,12.09
2022-12-31T12:03:13.312Z,12.06
2022-12-31T12:05:39.579Z,12.04
2022-12-31T12:08:05.849Z,12.05
2022-12-31T12:10:36.511Z,12.07
2022-12-31T12:13:03.256Z,12.03
2022-12-31T12:15:29.526Z,12.06
2022-12-31T12:17:55.775Z,12.07
2022-12-31T12:20:22.017Z,12.19
2022-12-31T12:22:49.600Z,12.23
2022-12-31T12:25:15.911Z,12.19
2022-12-31T12:27:42.206Z,12.19
2022-12-31T12:30:08.485Z,12.18
2022-12-31T12:32:34.776Z,12.27
2022-12-31T12:35:01.015Z,12.33
2022-12-31T12:37:27.261Z,12.39
2022-12-31T12:39:53.593Z,12.35
2022-12-31T12:42:19.833Z,12.34
2022-12-31T12:44:46.097Z,12.36
2022-12-31T12:47:12.486Z,12.44
2022-12-31T12:49:38.761Z,12.47
2022-12-31T12:52:05.022Z,12.52
2022-12-31T12:54:31.288Z,12.57
2022-12-31T12:56:57.535Z,12.61
2022-12-31T12:59:23.793Z,12.70
2022-12-31T13:01:50.306Z,12.80
2022-12-31T13:04:33.986Z,12.87
2022-12-31T13:07:00.806Z,12.86
2022-12-31T13:09:27.051Z,12.91
2022-12-31T13:11:53.292Z,12.89
2022-12-31T13:14:19.613Z,12.88
2022-12-31T13:16:45.951Z,12.90
2022-12-31T13:19:12.225Z,12.94
2022-12-31T13:21:38.475Z,12.98
2022-12-31T13:24:04.715Z,12.97
2022-12-31T13:26:30.977Z,12.97
2022-12-31T13:28:57.233Z,13.00
2022-12-31T13:31:23.522Z,13.01
2022-12-31T13:33:49.795Z,12.97
2022-12-31T13:36:16.148Z,13.01
2022-12-31T13:38:42.417Z,12.97
2022-12-31T13:41:08.716Z,12.97
2022-12-31T13:43:34.980Z,12.95
2022-12-31T13:46:01.313Z,12.90
2022-12-31T13:48:27.604Z,12.90
2022-12-31T13:50:53.883Z,12.89
2022-12-31T13:53:20.353Z,12.91
2022-12-31T13:55:48.060Z,12.96
2022-12-31T13:58:17.075Z,12.98
2022-12-31T14:00:43.360Z,13.03
2022-12-31T14:03:09.698Z,13.04
2022-12-31T14:05:35.993Z,13.04
2022-12-31T14:08:02.271Z,12.96
2022-12-31T14:10:28.520Z,12.89
2022-12-31T14:12:54.816Z,12.83
2022-12-31T14:15:21.071Z,12.75
2022-12-31T14:17:47.337Z,12.73
2022-12-31T14:20:13.603Z,12.72
2022-12-31T14:22:39.903Z,12.70
2022-12-31T14:25:06.146Z,12.68
2022-12-31T14:27:32.397Z,12.68
2022-12-31T14:29:58.670Z,12.71
2022-12-31T14:32:24.962Z,12.72
2022-12-31T14:34:51.251Z,12.79
2022-12-31T14:37:17.506Z,12.78
2022-12-31T14:39:43.740Z,12.81
2022-12-31T14:42:09.985Z,12.85
2022-12-31T14:44:36.235Z,12.87
2022-12-31T14:47:02.500Z,12.91
2022-12-31T14:49:28.773Z,12.95
2022-12-31T14:51:55.130Z,12.99
2022-12-31T14:54:25.666Z,13.02
2022-12-31T14:56:54.847Z,12.99
2022-12-31T14:59:21.138Z,13.03
2022-12-31T15:01:47.457Z,13.03
2022-12-31T15:04:13.792Z,13.04
2022-12-31T15:06:40.052Z,13.02
2022-12-31T15:09:08.550Z,12.99
2022-12-31T15:11:34.937Z,12.93
2022-12-31T15:14:01.199Z,12.87
2022-12-31T15:16:27.545Z,12.82
2022-12-31T15:18:53.819Z,12.78
2022-12-31T15:21:20.082Z,12.75
2022-12-31T15:23:46.332Z,12.72
2022-12-31T15:26:12.568Z,12.67
2022-12-31T15:28:38.849Z,12.68
2022-12-31T15:31:05.203Z,12.65
2022-12-31T15:33:31.600Z,12.63
2022-12-31T15:35:57.901Z,12.61
2022-12-31T15:38:24.184Z,12.59
2022-12-31T15:40:50.470Z,12.55
2022-12-31T15:43:16.748Z,12.55
2022-12-31T15:45:43.019Z,12.53
2022-12-31T15:48:09.272Z,12.48
2022-12-31T15:50:35.559Z,12.44
2022-12-31T15:53:01.826Z,12.40
2022-12-31T15:55:28.169Z,12.39
2022-12-31T15:57:54.444Z,12.36
2022-12-31T16:00:20.711Z,12.27
2022-12-31T16:02:47.079Z,12.22
2022-12-31T16:05:13.500Z,12.18
2022-12-31T16:07:39.827Z,12.16
2022-12-31T16:10:06.116Z,12.14
2022-12-31T16:12:34.375Z,12.10
2022-12-31T16:15:03.301Z,12.09
2022-12-31T16:17:29.608Z,12.09
2022-12-31T16:19:55.876Z,12.07
2022-12-31T16:22:22.130Z,12.03
2022-12-31T16:25:19.879Z,12.06
2022-12-31T16:27:34.661Z,12.03
2022-12-31T16:30:00.996Z,12.05
2022-12-31T16:32:27.299Z,11.95
2022-12-31T16:34:53.545Z,11.95
2022-12-31T16:37:19.815Z,11.98
2022-12-31T16:39:46.053Z,11.98
2022-12-31T16:42:12.619Z,11.94
2022-12-31T16:44:38.889Z,11.96
2022-12-31T16:47:05.128Z,12.01
2022-12-31T16:49:31.394Z,11.99
2022-12-31T16:51:57.682Z,11.96
2022-12-31T16:54:23.969Z,11.94
2022-12-31T16:56:50.234Z,11.93
2022-12-31T16:59:16.503Z,11.97
2022-12-31T17:01:42.883Z,12.00
2022-12-31T17:04:09.223Z,12.06
2022-12-31T17:06:35.497Z,12.08
2022-12-31T17:09:01.788Z,12.16
2022-12-31T17:11:28.034Z,12.16
2022-12-31T17:13:54.354Z,12.16
2022-12-31T17:16:20.638Z,12.13
2022-12-31T17:18:46.908Z,12.14
2022-12-31T17:21:13.157Z,12.06
2022-12-31T17:23:39.416Z,12.01
2022-12-31T17:26:05.681Z,11.95
2022-12-31T17:28:31.941Z,11.94
2022-12-31T17:30:58.288Z,11.93
2022-12-31T17:33:24.571Z,11.99
2022-12-31T17:35:50.825Z,12.00
2022-12-31T17:38:17.093Z,12.00
2022-12-31T17:40:51.930Z,12.01
2022-12-31T17:43:18.624Z,11.96
2022-12-31T17:45:44.880Z,12.00
2022-12-31T17:48:11.164Z,11.99
2022-12-31T17:50:37.434Z,11.93
2022-12-31T17:53:03.728Z,11.91
2022-12-31T17:55:29.996Z,11.92
2022-12-31T17:57:56.264Z,11.87
2022-12-31T18:00:22.534Z,11.86
2022-12-31T18:02:48.828Z,11.84
2022-12-31T18:05:15.192Z,11.93
2022-12-31T18:07:41.468Z,11.92
2022-12-31T18:10:07.741Z,11.90
2022-12-31T18:12:34.006Z,11.90
2022-12-31T18:15:00.281Z,11.92
2022-12-31T18:17:26.541Z,11.87
2022-12-31T18:20:09.182Z,11.89
2022-12-31T18:22:35.463Z,11.93
2022-12-31T18:25:01.738Z,11.98
2022-12-31T18:27:28.047Z,12.05
2022-12-31T18:29:59.125Z,12.04
2022-12-31T18:32:30.581Z,12.00
2022-12-31T18:34:56.835Z,11.98
2022-12-31T18:37:23.083Z,11.95
2022-12-31T18:39:49.334Z,11.95
2022-12-31T18:42:15.611Z,11.94
2022-12-31T18:44:41.877Z,11.98
2022-12-31T18:47:08.167Z,11.98
2022-12-31T18:49:34.409Z,11.98
2022-12-31T18:52:00.689Z,12.05
2022-12-31T18:54:26.957Z,12.03
2022-12-31T18:56:57.022Z,11.98
2022-12-31T18:59:23.641Z,11.94
2022-12-31T19:01:50.013Z,11.91
2022-12-31T19:04:20.047Z,11.88
2022-12-31T19:06:51.279Z,11.85
2022-12-31T19:09:43.340Z,11.85
2022-12-31T19:12:03.793Z,11.82
2022-12-31T19:14:30.074Z,11.80
2022-12-31T19:16:56.332Z,11.78
2022-12-31T19:19:22.570Z,11.72
2022-12-31T19:21:48.850Z,11.71
2022-12-31T19:24:15.164Z,11.71
2022-12-31T19:26:43.544Z,11.73
2022-12-31T19:29:09.998Z,11.69
2022-12-31T19:31:36.285Z,11.67
2022-12-31T19:34:02.685Z,11.68
2022-12-31T19:36:28.941Z,11.66
2022-12-31T19:38:55.215Z,11.73
2022-12-31T19:41:21.501Z,11.86
2022-12-31T19:43:47.771Z,11.84
2022-12-31T19:46:14.111Z,11.86
2022-12-31T19:48:40.405Z,11.88
2022-12-31T19:51:06.667Z,11.88
2022-12-31T19:53:32.933Z,11.90
2022-12-31T19:55:59.173Z,11.91
2022-12-31T19:58:25.520Z,11.89
2022-12-31T20:00:57.053Z,11.91
2022-12-31T20:03:24.680Z,11.88
2022-12-31T20:05:50.962Z,11.84
2022-12-31T20:08:17.255Z,11.83
2022-12-31T20:10:43.524Z,11.81
2022-12-31T20:13:09.777Z,11.80
2022-12-31T20:15:36.033Z,11.75
2022-12-31T20:18:02.305Z,11.76
2022-12-31T20:20:28.570Z,11.69
2022-12-31T20:22:54.835Z,11.58
2022-12-31T20:25:21.086Z,11.59
2022-12-31T20:27:47.350Z,11.56
2022-12-31T20:30:13.616Z,11.55
2022-12-31T20:32:39.976Z,11.57
2022-12-31T20:35:06.260Z,11.63
2022-12-31T20:37:32.521Z,11.64
2022-12-31T20:39:58.785Z,11.67
2022-12-31T20:42:25.036Z,11.70
2022-12-31T20:44:51.285Z,11.72
2022-12-31T20:47:17.529Z,11.73
2022-12-31T20:50:10.353Z,11.73
2022-12-31T20:52:30.037Z,11.78
2022-12-31T20:54:56.297Z,11.79
2022-12-31T20:57:22.553Z,11.81
2022-12-31T20:59:48.831Z,11.76
2022-12-31T21:02:29.584Z,11.76
2022-12-31T21:05:01.604Z,11.73
2022-12-31T21:07:27.966Z,11.77
2022-12-31T21:09:54.236Z,11.74
2022-12-31T21:12:20.502Z,11.72
2022-12-31T21:14:46.745Z,11.73
2022-12-31T21:17:13.007Z,11.69
2022-12-31T21:19:39.281Z,11.70
2022-12-31T21:22:05.643Z,11.67
2022-12-31T21:24:31.906Z,11.70
2022-12-31T21:26:58.184Z,11.69
2022-12-31T21:29:24.452Z,11.69
2022-12-31T21:31:50.738Z,11.69
2022-12-31T21:34:17.018Z,11.69
2022-12-31T21:36:43.266Z,11.70
2022-12-31T21:39:09.586Z,11.70
2022-12-31T21:41:35.852Z,11.71
2022-12-31T21:44:02.131Z,11.69
2022-12-31T21:46:28.463Z,11.65
2022-12-31T21:48:54.802Z,11.63
2022-12-31T21:51:21.053Z,11.64
2022-12-31T21:53:47.316Z,11.70
2022-12-31T21:56:13.590Z,11.69
2022-12-31T21:58:39.874Z,11.71
2022-12-31T22:01:06.154Z,11.72
2022-12-31T22:03:32.489Z,11.75
2022-12-31T22:05:58.802Z,11.76
2022-12-31T22:08:25.065Z,11.71
2022-12-31T22:10:52.941Z,11.67
2022-12-31T22:13:19.482Z,11.64
2022-12-31T22:15:45.798Z,11.65
2022-12-31T22:18:12.113Z,11.62
2022-12-31T22:20:38.377Z,11.57
2022-12-31T22:23:04.644Z,11.58
2022-12-31T22:25:31.110Z,11.57
2022-12-31T22:28:37.059Z,11.57
2022-12-31T22:30:43.688Z,11.55
2022-12-31T22:33:09.932Z,11.52
2022-12-31T22:35:36.191Z,11.56
2022-12-31T22:38:09.842Z,11.58
2022-12-31T22:40:38.087Z,11.59
2022-12-31T22:43:04.356Z,11.57
2022-12-31T22:45:30.592Z,11.57
2022-12-31T22:47:56.857Z,11.54
2022-12-31T22:50:23.137Z,11.61
2022-12-31T22:52:49.396Z,11.61
2022-12-31T22:55:15.709Z,11.62
2022-12-31T22:57:41.973Z,11.58
2022-12-31T23:00:08.236Z,11.64
2022-12-31T23:02:39.881Z,11.62
2022-12-31T23:05:15.344Z,11.62
2022-12-31T23:07:42.736Z,11.62
2022-12-31T23:10:09.012Z,11.53
2022-12-31T23:12:35.292Z,11.60
2022-12-31T23:15:01.568Z,11.68
2022-12-31T23:17:31.502Z,11.70
2022-12-31T23:19:58.206Z,11.71
2022-12-31T23:22:24.467Z,11.71
2022-12-31T23:24:50.754Z,11.65
2022-12-31T23:27:17.010Z,11.60
2022-12-31T23:29:47.107Z,11.61
2022-12-31T23:32:13.871Z,11.62
2022-12-31T23:34:40.196Z,11.60
2022-12-31T23:37:06.479Z,11.63
2022-12-31T23:39:32.755Z,11.61
2022-12-31T23:41:59.012Z,11.56
2022-12-31T23:44:25.318Z,11.57
2022-12-31T23:46:51.592Z,11.54
2022-12-31T23:49:17.877Z,11.51
2022-12-31T23:51:44.176Z,11.46
2022-12-31T23:54:10.429Z,11.29
2022-12-31T23:56:36.749Z,11.34
2022-12-31T23:59:03.018Z,11.31
